createdAt,value
2022-11-19T00:01:28.658Z,10.50
2022-11-19T00:03:56.252Z,10.50
2022-11-19T00:06:24.936Z,10.40
2022-11-19T00:08:52.045Z,10.40
2022-11-19T00:11:45.803Z,10.40
2022-11-19T00:14:14.458Z,10.40
2022-11-19T00:16:42.196Z,10.40
2022-11-19T00:19:10.945Z,10.40
2022-11-19T00:21:37.735Z,10.40
2022-11-19T00:24:04.907Z,10.30
2022-11-19T00:26:31.714Z,10.30
2022-11-19T00:28:58.555Z,10.30
2022-11-19T00:31:25.448Z,10.30
2022-11-19T00:33:54.401Z,10.30
2022-11-19T00:36:21.764Z,10.20
2022-11-19T00:38:48.587Z,10.20
2022-11-19T00:41:15.427Z,10.20
2022-11-19T00:43:48.410Z,10.20
2022-11-19T00:46:33.246Z,10.20
2022-11-19T00:49:00.736Z,10.20
2022-11-19T00:51:29.777Z,10.20
2022-11-19T00:53:57.687Z,10.20
2022-11-19T00:56:26.370Z,10.20
2022-11-19T00:58:53.815Z,10.20
2022-11-19T01:01:23.288Z,10.20
2022-11-19T01:03:50.738Z,10.20
2022-11-19T01:06:20.217Z,10.20
2022-11-19T01:08:51.185Z,10.20
2022-11-19T01:11:21.248Z,10.20
2022-11-19T01:13:48.953Z,10.20
2022-11-19T01:16:19.947Z,10.20
2022-11-19T01:18:49.029Z,10.20
2022-11-19T01:21:17.570Z,10.20
2022-11-19T01:23:44.943Z,10.20
2022-11-19T01:26:12.980Z,10.20
2022-11-19T01:28:40.143Z,10.20
2022-11-19T01:31:09.421Z,10.10
2022-11-19T01:33:36.818Z,10.20
2022-11-19T01:36:11.258Z,10.20
2022-11-19T01:38:38.150Z,10.20
2022-11-19T01:41:06.032Z,10.20
2022-11-19T01:44:03.924Z,10.20
2022-11-19T01:46:33.792Z,10.10
2022-11-19T01:49:15.267Z,10.10
2022-11-19T01:52:00.673Z,10.10
2022-11-19T01:54:40.842Z,10.10
2022-11-19T01:57:11.485Z,10.10
2022-11-19T01:59:39.371Z,10.10
2022-11-19T02:02:06.190Z,10.00
2022-11-19T02:04:35.207Z,10.10
2022-11-19T02:07:02.573Z,10.00
2022-11-19T02:09:30.161Z,10.10
2022-11-19T02:12:11.150Z,10.00
2022-11-19T02:14:55.184Z,10.00
2022-11-19T02:17:37.449Z,10.00
2022-11-19T02:20:25.374Z,10.00
2022-11-19T02:23:13.416Z,10.00
2022-11-19T02:26:15.013Z,9.90
2022-11-19T02:28:46.580Z,10.00
2022-11-19T02:31:22.408Z,10.00
2022-11-19T02:34:09.104Z,10.00
2022-11-19T02:36:57.920Z,10.00
2022-11-19T02:39:52.963Z,10.00
2022-11-19T02:42:56.414Z,10.00
2022-11-19T02:45:41.805Z,10.00
2022-11-19T02:48:15.548Z,10.00
2022-11-19T02:50:49.312Z,10.00
2022-11-19T02:53:16.328Z,10.00
2022-11-19T02:56:03.231Z,10.00
2022-11-19T02:58:51.482Z,10.00
2022-11-19T03:01:39.235Z,10.10
2022-11-19T03:04:26.597Z,10.10
2022-11-19T03:06:54.539Z,10.10
2022-11-19T03:09:22.793Z,10.10
2022-11-19T03:12:04.085Z,10.10
2022-11-19T03:14:59.979Z,10.10
2022-11-19T03:17:39.418Z,10.10
2022-11-19T03:20:33.118Z,10.10
2022-11-19T03:23:18.222Z,10.10
2022-11-19T03:25:49.320Z,10.10
2022-11-19T03:28:22.014Z,10.10
2022-11-19T03:30:51.134Z,10.10
2022-11-19T03:33:24.455Z,10.10
2022-11-19T03:35:56.195Z,10.00
2022-11-19T03:38:29.286Z,10.00
2022-11-19T03:40:57.049Z,10.00
2022-11-19T03:43:28.094Z,10.00
2022-11-19T03:45:57.416Z,10.00
2022-11-19T03:48:26.148Z,10.00
2022-11-19T03:51:07.535Z,10.10
2022-11-19T03:53:34.434Z,10.00
2022-11-19T03:56:10.951Z,10.00
2022-11-19T03:58:46.010Z,10.00
2022-11-19T04:01:14.003Z,10.00
2022-11-19T04:03:40.837Z,10.00
2022-11-19T04:06:07.689Z,10.00
2022-11-19T04:08:34.559Z,10.00
2022-11-19T04:13:27.011Z,10.10
2022-11-19T04:15:53.827Z,10.00
2022-11-19T04:18:20.634Z,10.00
2022-11-19T04:20:47.424Z,10.00
2022-11-19T04:23:14.219Z,10.00
2022-11-19T04:25:46.103Z,10.10
2022-11-19T04:28:12.891Z,10.00
2022-11-19T04:30:39.673Z,10.00
2022-11-19T04:33:06.555Z,10.00
2022-11-19T04:35:33.591Z,10.10
2022-11-19T04:38:00.384Z,10.00
2022-11-19T04:40:27.160Z,10.00
2022-11-19T04:42:53.971Z,10.00
2022-11-19T04:45:20.781Z,10.00
2022-11-19T04:47:47.592Z,10.10
2022-11-19T04:50:14.504Z,10.10
2022-11-19T04:52:41.695Z,10.10
2022-11-19T04:55:09.706Z,10.00
2022-11-19T04:57:36.645Z,10.10
2022-11-19T05:00:04.159Z,10.10
2022-11-19T05:02:30.940Z,10.10
2022-11-19T05:04:57.758Z,10.10
2022-11-19T05:07:24.627Z,10.10
2022-11-19T05:09:51.454Z,10.10
2022-11-19T05:12:18.483Z,10.10
2022-11-19T05:14:45.767Z,10.10
2022-11-19T05:17:12.592Z,10.10
2022-11-19T05:19:39.421Z,10.00
2022-11-19T05:22:06.279Z,10.10
2022-11-19T05:24:33.078Z,10.00
2022-11-19T05:26:59.884Z,10.00
2022-11-19T05:29:26.704Z,10.00
2022-11-19T05:31:53.494Z,9.90
2022-11-19T05:34:20.290Z,9.90
2022-11-19T05:36:47.095Z,9.90
2022-11-19T05:39:18.791Z,9.90
2022-11-19T05:41:48.563Z,9.90
2022-11-19T05:44:15.378Z,9.90
2022-11-19T05:46:42.189Z,9.90
2022-11-19T05:49:09.030Z,9.90
2022-11-19T05:51:36.053Z,9.80
2022-11-19T05:54:03.060Z,9.90
2022-11-19T05:56:29.942Z,9.80
2022-11-19T05:58:56.776Z,9.80
2022-11-19T06:01:28.549Z,9.80
2022-11-19T06:03:55.783Z,9.70
2022-11-19T06:06:23.179Z,9.80
2022-11-19T06:08:50.303Z,9.80
2022-11-19T06:11:35.845Z,9.80
2022-11-19T06:14:03.051Z,9.80
2022-11-19T06:16:29.911Z,9.70
2022-11-19T06:18:56.710Z,9.80
2022-11-19T06:21:23.500Z,9.80
2022-11-19T06:23:50.295Z,9.80
2022-11-19T06:26:27.934Z,9.80
2022-11-19T06:28:55.364Z,9.80
2022-11-19T06:31:22.915Z,9.80
2022-11-19T06:33:50.142Z,9.80
2022-11-19T06:36:17.005Z,9.80
2022-11-19T06:38:43.769Z,9.80
2022-11-19T06:41:10.996Z,9.80
2022-11-19T06:43:38.125Z,9.80
2022-11-19T06:46:05.079Z,9.80
2022-11-19T06:48:32.029Z,9.90
2022-11-19T06:50:58.894Z,9.90
2022-11-19T06:53:25.700Z,9.90
2022-11-19T06:55:59.934Z,9.90
2022-11-19T06:58:27.753Z,10.00
2022-11-19T07:00:54.760Z,10.00
2022-11-19T07:03:22.031Z,10.00
2022-11-19T07:05:49.459Z,10.00
2022-11-19T07:08:16.943Z,10.00
2022-11-19T07:10:43.952Z,10.00
2022-11-19T07:13:10.822Z,10.00
2022-11-19T07:15:37.878Z,10.00
2022-11-19T07:18:04.955Z,10.00
2022-11-19T07:20:31.786Z,10.00
2022-11-19T07:22:59.558Z,10.00
2022-11-19T07:25:27.186Z,9.90
2022-11-19T07:27:54.076Z,9.90
2022-11-19T07:30:21.441Z,10.00
2022-11-19T07:32:48.586Z,9.90
2022-11-19T07:35:15.474Z,10.00
2022-11-19T07:37:42.269Z,9.90
2022-11-19T07:40:11.148Z,9.90
2022-11-19T07:42:49.827Z,9.90
2022-11-19T07:45:21.597Z,9.90
2022-11-19T07:47:48.694Z,9.90
2022-11-19T07:50:17.212Z,9.90
2022-11-19T07:52:44.475Z,9.90
2022-11-19T07:55:11.287Z,9.90
2022-11-19T07:57:38.234Z,9.90
2022-11-19T08:00:06.690Z,9.90
2022-11-19T08:02:33.507Z,9.90
2022-11-19T08:05:00.296Z,10.00
2022-11-19T08:07:27.186Z,10.00
2022-11-19T08:09:54.015Z,10.00
2022-11-19T08:12:20.814Z,10.10
2022-11-19T08:14:47.593Z,10.10
2022-11-19T08:17:33.078Z,10.10
2022-11-19T08:19:59.887Z,10.10
2022-11-19T08:22:26.755Z,10.20
2022-11-19T08:24:53.531Z,10.20
2022-11-19T08:27:20.416Z,10.20
2022-11-19T08:29:47.259Z,10.30
2022-11-19T08:32:14.338Z,10.30
2022-11-19T08:34:41.190Z,10.40
2022-11-19T08:37:13.634Z,10.40
2022-11-19T08:39:40.946Z,10.40
2022-11-19T08:42:28.082Z,10.40
2022-11-19T08:44:55.875Z,10.40
2022-11-19T08:47:22.703Z,10.50
2022-11-19T08:49:49.526Z,10.50
2022-11-19T08:52:16.369Z,10.50
2022-11-19T08:54:43.162Z,10.50
2022-11-19T08:57:09.974Z,10.50
2022-11-19T08:59:36.770Z,10.50
2022-11-19T09:02:03.553Z,10.50
2022-11-19T09:04:30.351Z,10.60
2022-11-19T09:06:57.793Z,10.60
2022-11-19T09:09:24.736Z,10.60
2022-11-19T09:11:51.652Z,10.60
2022-11-19T09:14:18.829Z,10.60
2022-11-19T09:16:45.851Z,10.60
2022-11-19T09:19:12.637Z,10.60
2022-11-19T09:21:39.440Z,10.60
2022-11-19T09:24:06.408Z,10.60
2022-11-19T09:26:33.202Z,10.60
2022-11-19T09:28:59.986Z,10.60
2022-11-19T09:31:26.872Z,10.70
2022-11-19T09:33:54.584Z,10.60
2022-11-19T09:36:21.577Z,10.70
2022-11-19T09:38:48.824Z,10.70
2022-11-19T09:41:37.116Z,10.70
2022-11-19T09:44:25.165Z,10.70
2022-11-19T09:47:04.980Z,10.70
2022-11-19T09:49:43.275Z,10.70
2022-11-19T09:52:16.869Z,10.80
2022-11-19T09:54:54.121Z,10.80
2022-11-19T09:57:48.789Z,10.80
2022-11-19T10:00:29.517Z,10.90
2022-11-19T10:02:59.307Z,10.80
2022-11-19T10:05:41.742Z,10.80
2022-11-19T10:08:26.774Z,10.90
2022-11-19T10:11:02.149Z,10.90
2022-11-19T10:13:36.988Z,10.90
2022-11-19T10:16:35.030Z,10.90
2022-11-19T10:19:35.231Z,10.90
2022-11-19T10:22:02.131Z,11.00
2022-11-19T10:24:39.185Z,11.00
2022-11-19T10:27:32.146Z,11.00
2022-11-19T10:30:03.048Z,11.00
2022-11-19T10:32:38.813Z,11.00
2022-11-19T10:35:17.284Z,11.00
2022-11-19T10:38:05.599Z,11.10
2022-11-19T10:40:45.836Z,11.00
2022-11-19T10:43:25.913Z,11.10
2022-11-19T10:45:53.394Z,11.10
2022-11-19T10:48:25.245Z,11.10
2022-11-19T10:50:52.580Z,11.20
2022-11-19T10:53:38.464Z,11.10
2022-11-19T10:56:13.241Z,11.20
2022-11-19T10:58:48.329Z,11.30
2022-11-19T11:01:23.379Z,11.30
2022-11-19T11:03:58.455Z,11.30
2022-11-19T11:06:25.283Z,11.30
2022-11-19T11:08:56.546Z,11.40
2022-11-19T11:11:50.037Z,11.40
2022-11-19T11:14:38.902Z,11.40
2022-11-19T11:17:18.990Z,11.50
2022-11-19T11:20:00.154Z,11.50
2022-11-19T11:22:28.036Z,11.50
2022-11-19T11:24:55.059Z,11.50
2022-11-19T11:27:28.066Z,11.50
2022-11-19T11:30:14.163Z,11.50
2022-11-19T11:32:41.737Z,11.50
2022-11-19T11:35:32.457Z,11.50
2022-11-19T11:38:01.407Z,11.50
2022-11-19T11:40:28.791Z,11.40
2022-11-19T11:42:56.107Z,11.40
2022-11-19T11:45:28.831Z,11.50
2022-11-19T11:47:57.632Z,11.50
2022-11-19T11:50:27.632Z,11.60
2022-11-19T11:52:57.767Z,11.70
2022-11-19T11:55:24.550Z,11.70
2022-11-19T11:57:54.538Z,11.70
2022-11-19T12:00:39.058Z,11.80
2022-11-19T12:03:08.421Z,11.80
2022-11-19T12:05:54.963Z,11.90
2022-11-19T12:08:45.845Z,11.90
2022-11-19T12:11:51.767Z,12.00
2022-11-19T12:14:24.845Z,12.00
2022-11-19T12:17:13.275Z,12.00
2022-11-19T12:19:47.095Z,12.00
2022-11-19T12:22:47.031Z,12.10
2022-11-19T12:25:32.265Z,12.00
2022-11-19T12:28:37.910Z,12.10
2022-11-19T12:31:29.727Z,12.10
2022-11-19T12:34:13.941Z,12.10
2022-11-19T12:36:57.027Z,12.10
2022-11-19T12:39:35.567Z,12.10
2022-11-19T12:42:30.355Z,12.10
2022-11-19T12:45:22.218Z,12.10
2022-11-19T12:48:13.695Z,12.10
2022-11-19T12:51:07.316Z,12.20
2022-11-19T12:53:34.079Z,12.10
2022-11-19T12:56:21.622Z,12.10
2022-11-19T12:58:58.974Z,12.10
2022-11-19T13:01:29.289Z,12.10
2022-11-19T13:04:05.437Z,12.10
2022-11-19T13:06:41.073Z,12.10
2022-11-19T13:09:36.169Z,12.10
2022-11-19T13:12:09.575Z,12.10
2022-11-19T13:14:54.507Z,12.10
2022-11-19T13:17:27.897Z,12.20
2022-11-19T13:19:59.043Z,12.20
2022-11-19T13:22:37.775Z,12.20
2022-11-19T13:25:16.569Z,12.30
2022-11-19T13:27:45.021Z,12.30
2022-11-19T13:30:22.012Z,12.30
2022-11-19T13:33:16.647Z,12.40
2022-11-19T13:35:50.395Z,12.40
2022-11-19T13:38:44.574Z,12.40
2022-11-19T13:41:30.066Z,12.50
2022-11-19T13:44:16.424Z,12.50
2022-11-19T13:46:46.032Z,12.50
2022-11-19T13:49:46.670Z,12.50
2022-11-19T13:52:27.573Z,12.60
2022-11-19T13:54:56.417Z,12.60
2022-11-19T13:57:33.558Z,12.60
2022-11-19T14:00:23.646Z,12.50
2022-11-19T14:03:31.128Z,12.60
2022-11-19T14:06:16.880Z,12.50
2022-11-19T14:08:49.303Z,12.60
2022-11-19T14:11:26.807Z,12.50
2022-11-19T14:14:44.531Z,12.60
2022-11-19T14:17:40.507Z,12.60
2022-11-19T14:20:49.611Z,12.60
2022-11-19T14:24:09.774Z,12.50
2022-11-19T14:26:42.350Z,12.60
2022-11-19T14:29:27.283Z,12.60
2022-11-19T14:32:03.248Z,12.60
2022-11-19T14:34:31.822Z,12.60
2022-11-19T14:37:03.099Z,12.60
2022-11-19T14:39:41.521Z,12.60
2022-11-19T14:42:18.778Z,12.60
2022-11-19T14:45:01.875Z,12.70
2022-11-19T14:47:37.536Z,12.60
2022-11-19T14:50:08.968Z,12.60
2022-11-19T14:52:51.194Z,12.60
2022-11-19T14:55:23.874Z,12.60
2022-11-19T14:58:07.177Z,12.60
2022-11-19T15:00:37.712Z,12.60
2022-11-19T15:03:13.954Z,12.60
2022-11-19T15:05:43.200Z,12.60
2022-11-19T15:08:19.265Z,12.50
2022-11-19T15:11:09.877Z,12.50
2022-11-19T15:13:45.020Z,12.50
2022-11-19T15:16:28.103Z,12.50
2022-11-19T15:19:21.682Z,12.50
2022-11-19T15:22:17.945Z,12.50
2022-11-19T15:25:00.418Z,12.40
2022-11-19T15:27:56.785Z,12.40
2022-11-19T15:30:39.151Z,12.40
2022-11-19T15:33:35.425Z,12.40
2022-11-19T15:36:21.258Z,12.40
2022-11-19T15:38:59.901Z,12.40
2022-11-19T15:41:29.303Z,12.40
2022-11-19T15:44:03.866Z,12.40
2022-11-19T15:46:40.885Z,12.40
2022-11-19T15:49:11.009Z,12.30
2022-11-19T15:52:17.362Z,12.30
2022-11-19T15:54:45.285Z,12.30
2022-11-19T15:57:22.910Z,12.30
2022-11-19T16:00:02.550Z,12.30
2022-11-19T16:02:43.952Z,12.30
2022-11-19T16:05:20.378Z,12.20
2022-11-19T16:07:48.832Z,12.20
2022-11-19T16:10:42.814Z,12.20
2022-11-19T16:13:43.029Z,12.10
2022-11-19T16:16:45.766Z,12.10
2022-11-19T16:19:17.299Z,12.10
2022-11-19T16:21:47.459Z,12.00
2022-11-19T16:24:36.881Z,12.00
2022-11-19T16:27:08.835Z,12.00
2022-11-19T16:29:40.964Z,12.00
2022-11-19T16:32:08.370Z,11.90
2022-11-19T16:34:37.106Z,11.90
2022-11-19T16:37:04.183Z,11.90
2022-11-19T16:39:33.277Z,11.90
2022-11-19T16:42:19.546Z,11.90
2022-11-19T16:45:05.099Z,11.90
2022-11-19T16:47:37.485Z,11.80
2022-11-19T16:50:07.232Z,11.80
2022-11-19T16:52:42.741Z,11.80
2022-11-19T16:55:18.783Z,11.80
2022-11-19T16:57:51.937Z,11.80
2022-11-19T17:00:39.235Z,11.80
2022-11-19T17:03:21.241Z,11.70
2022-11-19T17:05:50.762Z,11.70
2022-11-19T17:08:23.906Z,11.80
2022-11-19T17:11:30.662Z,11.70
2022-11-19T17:13:57.531Z,11.70
2022-11-19T17:16:24.705Z,11.70
2022-11-19T17:18:51.961Z,11.70
2022-11-19T17:21:30.493Z,11.70
2022-11-19T17:23:58.303Z,11.60
2022-11-19T17:26:27.524Z,11.70
2022-11-19T17:29:09.005Z,11.60
2022-11-19T17:31:35.995Z,11.60
2022-11-19T17:34:12.405Z,11.60
2022-11-19T17:36:39.984Z,11.60
2022-11-19T17:39:14.859Z,11.60
2022-11-19T17:42:02.884Z,11.60
2022-11-19T17:44:49.252Z,11.60
2022-11-19T17:47:22.225Z,11.60
2022-11-19T17:49:50.471Z,11.70
2022-11-19T17:52:24.412Z,11.60
2022-11-19T17:54:53.706Z,11.70
2022-11-19T17:57:20.705Z,11.70
2022-11-19T17:59:47.520Z,11.70
2022-11-19T18:02:16.586Z,11.70
2022-11-19T18:04:44.690Z,11.70
2022-11-19T18:07:12.509Z,11.70
2022-11-19T18:09:40.356Z,11.70
2022-11-19T18:12:11.872Z,11.70
2022-11-19T18:14:38.671Z,11.70
2022-11-19T18:17:05.491Z,11.70
2022-11-19T18:19:32.419Z,11.60
2022-11-19T18:21:59.248Z,11.70
2022-11-19T18:24:26.160Z,11.70
2022-11-19T18:26:53.028Z,11.70
2022-11-19T18:29:20.145Z,11.70
2022-11-19T18:31:50.358Z,11.70
2022-11-19T18:34:20.971Z,11.70
2022-11-19T18:36:47.894Z,11.70
2022-11-19T18:39:15.011Z,11.70
2022-11-19T18:41:42.309Z,11.70
2022-11-19T18:44:34.955Z,11.70
2022-11-19T18:47:07.503Z,11.70
2022-11-19T18:49:35.161Z,11.70
2022-11-19T18:52:03.785Z,11.70
2022-11-19T18:54:30.704Z,11.70
2022-11-19T18:56:57.600Z,11.60
2022-11-19T18:59:24.629Z,11.60
2022-11-19T19:01:52.595Z,11.60
2022-11-19T19:04:19.443Z,11.60
2022-11-19T19:06:46.257Z,11.60
2022-11-19T19:09:19.474Z,11.50
2022-11-19T19:12:11.374Z,11.50
2022-11-19T19:14:39.760Z,11.50
2022-11-19T19:17:06.588Z,11.50
2022-11-19T19:19:33.481Z,11.60
2022-11-19T19:22:00.568Z,11.50
2022-11-19T19:24:27.445Z,11.50
2022-11-19T19:26:54.286Z,11.50
2022-11-19T19:29:21.427Z,11.50
2022-11-19T19:31:48.569Z,11.50
2022-11-19T19:34:15.539Z,11.50
2022-11-19T19:36:46.447Z,11.50
2022-11-19T19:39:17.177Z,11.40
2022-11-19T19:41:44.195Z,11.40
2022-11-19T19:44:11.142Z,11.40
2022-11-19T19:46:37.954Z,11.40
2022-11-19T19:49:04.856Z,11.40
2022-11-19T19:51:32.856Z,11.40
2022-11-19T19:54:01.408Z,11.40
2022-11-19T19:56:30.516Z,11.30
2022-11-19T19:58:58.520Z,11.30
2022-11-19T20:01:32.910Z,11.30
2022-11-19T20:04:08.907Z,11.20
2022-11-19T20:06:38.088Z,11.30
2022-11-19T20:09:08.778Z,11.20
2022-11-19T20:11:36.641Z,11.20
2022-11-19T20:14:04.418Z,11.20
2022-11-19T20:16:32.198Z,11.20
2022-11-19T20:19:00.563Z,11.10
2022-11-19T20:21:31.664Z,11.10
2022-11-19T20:23:58.630Z,11.00
2022-11-19T20:26:28.585Z,11.00
2022-11-19T20:29:03.680Z,11.00
2022-11-19T20:31:31.988Z,11.00
2022-11-19T20:34:01.129Z,11.00
2022-11-19T20:36:30.426Z,11.00
2022-11-19T20:39:00.030Z,11.00
2022-11-19T20:41:46.750Z,11.00
2022-11-19T20:44:21.548Z,11.00
2022-11-19T20:47:03.260Z,11.10
2022-11-19T20:49:33.691Z,11.10
2022-11-19T20:52:01.319Z,11.10
2022-11-19T20:54:28.516Z,11.10
2022-11-19T20:56:56.441Z,11.10
2022-11-19T20:59:25.436Z,11.10
2022-11-19T21:01:53.813Z,11.10
2022-11-19T21:04:21.952Z,11.10
2022-11-19T21:06:53.981Z,11.10
2022-11-19T21:09:21.549Z,11.10
2022-11-19T21:11:48.773Z,11.10
2022-11-19T21:14:15.641Z,11.10
2022-11-19T21:16:42.475Z,11.00
2022-11-19T21:19:10.604Z,11.10
2022-11-19T21:21:38.103Z,11.10
2022-11-19T21:24:05.368Z,11.00
2022-11-19T21:26:32.156Z,11.00
2022-11-19T21:28:59.782Z,11.10
2022-11-19T21:31:39.016Z,11.10
2022-11-19T21:34:07.167Z,11.10
2022-11-19T21:36:34.461Z,11.10
2022-11-19T21:39:01.416Z,11.00
2022-11-19T21:41:28.227Z,11.00
2022-11-19T21:43:55.055Z,11.10
2022-11-19T21:46:21.850Z,11.10
2022-11-19T21:48:48.664Z,11.00
2022-11-19T21:51:17.942Z,11.10
2022-11-19T21:53:48.899Z,11.00
2022-11-19T21:56:15.685Z,11.00
2022-11-19T21:58:42.500Z,11.10
2022-11-19T22:01:10.503Z,11.10
2022-11-19T22:03:37.294Z,11.10
2022-11-19T22:06:09.326Z,11.10
2022-11-19T22:08:38.519Z,11.10
2022-11-19T22:11:26.737Z,11.10
2022-11-19T22:13:54.805Z,11.10
2022-11-19T22:16:21.996Z,11.10
2022-11-19T22:18:48.838Z,11.00
2022-11-19T22:21:15.902Z,11.00
2022-11-19T22:23:42.820Z,11.00
2022-11-19T22:26:11.596Z,11.00
2022-11-19T22:28:38.954Z,11.10
2022-11-19T22:31:06.093Z,11.10
2022-11-19T22:33:35.156Z,11.10
2022-11-19T22:36:09.575Z,11.10
2022-11-19T22:38:37.731Z,11.10
2022-11-19T22:41:08.024Z,11.10
2022-11-19T22:43:35.868Z,11.10
2022-11-19T22:46:02.803Z,11.10
2022-11-19T22:48:31.322Z,11.10
2022-11-19T22:50:58.896Z,11.10
2022-11-19T22:53:25.888Z,11.10
2022-11-19T22:55:52.787Z,11.10
2022-11-19T22:58:19.574Z,11.10
2022-11-19T23:00:48.909Z,11.10
2022-11-19T23:03:16.341Z,11.10
2022-11-19T23:05:49.801Z,11.10
2022-11-19T23:08:16.651Z,11.10
2022-11-19T23:10:43.685Z,11.10
2022-11-19T23:13:34.284Z,11.10
2022-11-19T23:16:12.205Z,11.10
2022-11-19T23:18:51.093Z,11.10
2022-11-19T23:21:20.619Z,11.10
2022-11-19T23:23:47.804Z,11.10
2022-11-19T23:26:16.028Z,11.10
2022-11-19T23:28:43.288Z,11.10
2022-11-19T23:31:15.786Z,11.10
2022-11-19T23:33:42.782Z,11.10
2022-11-19T23:36:15.158Z,11.10
2022-11-19T23:38:42.426Z,11.10
2022-11-19T23:41:11.330Z,11.00
2022-11-19T23:43:38.814Z,11.00
2022-11-19T23:46:13.658Z,11.00
2022-11-19T23:48:42.459Z,10.90
2022-11-19T23:51:12.845Z,10.90
2022-11-19T23:53:39.995Z,10.90
2022-11-19T23:56:07.346Z,10.90
2022-11-19T23:58:35.199Z,10.90
